createdAt,value
2019-06-09T00:01:43.442Z,13.00
2019-06-09T00:04:11.465Z,12.95
2019-06-09T00:06:37.409Z,12.95
2019-06-09T00:09:05.119Z,12.82
2019-06-09T00:11:30.959Z,12.88
2019-06-09T00:13:57.727Z,12.73
2019-06-09T00:16:27.151Z,12.68
2019-06-09T00:18:53.462Z,12.68
2019-06-09T00:21:19.274Z,12.58
2019-06-09T00:23:47.713Z,12.70
2019-06-09T00:26:13.086Z,12.63
2019-06-09T00:28:39.257Z,12.56
2019-06-09T00:31:08.738Z,12.58
2019-06-09T00:33:37.118Z,12.50
2019-06-09T00:36:02.586Z,12.29
2019-06-09T00:38:28.390Z,12.38
2019-06-09T00:40:54.183Z,12.40
2019-06-09T00:43:23.225Z,12.31
2019-06-09T00:45:49.047Z,12.25
2019-06-09T00:48:18.110Z,12.16
2019-06-09T00:50:43.883Z,12.17
2019-06-09T00:53:13.994Z,12.19
2019-06-09T00:55:40.406Z,12.25
2019-06-09T00:58:10.712Z,12.25
2019-06-09T01:00:34.323Z,12.20
2019-06-09T01:03:00.827Z,12.22
2019-06-09T01:05:27.950Z,12.24
2019-06-09T01:07:54.229Z,12.24
2019-06-09T01:10:21.146Z,12.21
2019-06-09T01:12:47.945Z,12.23
2019-06-09T01:15:15.087Z,12.18
2019-06-09T01:17:42.298Z,12.20
2019-06-09T01:20:11.131Z,12.19
2019-06-09T01:22:37.491Z,12.14
2019-06-09T01:25:09.226Z,12.04
2019-06-09T01:27:37.268Z,12.01
2019-06-09T01:30:13.779Z,11.92
2019-06-09T01:32:38.361Z,11.71
2019-06-09T01:35:04.418Z,11.63
2019-06-09T01:37:30.237Z,11.67
2019-06-09T01:39:57.785Z,11.67
2019-06-09T01:42:23.620Z,11.62
2019-06-09T01:45:07.399Z,11.63
2019-06-09T01:47:20.477Z,11.61
2019-06-09T01:49:47.791Z,11.59
2019-06-09T01:52:14.071Z,11.57
2019-06-09T01:54:39.809Z,11.57
2019-06-09T01:57:07.979Z,11.54
2019-06-09T01:59:34.290Z,11.49
2019-06-09T02:02:00.441Z,11.43
2019-06-09T02:04:27.462Z,11.38
2019-06-09T02:06:54.327Z,11.43
2019-06-09T02:09:22.090Z,11.36
2019-06-09T02:11:48.358Z,11.30
2019-06-09T02:14:14.595Z,11.34
2019-06-09T02:16:40.411Z,11.37
2019-06-09T02:19:08.284Z,11.34
2019-06-09T02:21:34.923Z,11.41
2019-06-09T02:24:00.972Z,11.40
2019-06-09T02:26:27.937Z,11.41
2019-06-09T02:28:53.820Z,11.18
2019-06-09T02:31:26.415Z,11.10
2019-06-09T02:33:54.507Z,11.14
2019-06-09T02:36:26.622Z,11.08
2019-06-09T02:38:44.155Z,11.12
2019-06-09T02:41:13.219Z,11.05
2019-06-09T02:43:38.445Z,11.00
2019-06-09T02:46:35.920Z,11.00
2019-06-09T02:49:03.113Z,11.05
2019-06-09T02:51:36.007Z,11.03
2019-06-09T02:53:57.147Z,11.07
2019-06-09T02:56:27.205Z,11.06
2019-06-09T02:58:51.795Z,10.98
2019-06-09T03:01:17.822Z,11.02
2019-06-09T03:04:00.236Z,11.05
2019-06-09T03:06:12.518Z,11.05
2019-06-09T03:08:43.533Z,11.05
2019-06-09T03:11:06.755Z,10.99
2019-06-09T03:13:39.728Z,10.96
2019-06-09T03:16:02.877Z,10.93
2019-06-09T03:18:35.131Z,10.95
2019-06-09T03:20:55.995Z,11.04
2019-06-09T03:23:24.743Z,10.83
2019-06-09T03:25:52.453Z,10.74
2019-06-09T03:28:17.269Z,10.66
2019-06-09T03:31:03.503Z,10.72
2019-06-09T03:34:07.530Z,10.74
2019-06-09T03:36:21.938Z,10.81
2019-06-09T03:38:18.019Z,10.80
2019-06-09T03:40:39.429Z,10.81
2019-06-09T03:43:03.128Z,10.84
2019-06-09T03:45:36.631Z,10.88
2019-06-09T03:47:57.563Z,10.85
2019-06-09T03:50:27.834Z,10.87
2019-06-09T03:52:52.392Z,10.95
2019-06-09T03:55:20.827Z,10.99
2019-06-09T03:57:46.424Z,11.00
2019-06-09T04:00:15.284Z,10.78
2019-06-09T04:02:44.632Z,10.74
2019-06-09T04:05:08.216Z,10.79
2019-06-09T04:07:39.389Z,10.81
2019-06-09T04:10:04.258Z,10.80
2019-06-09T04:12:38.943Z,10.88
2019-06-09T04:14:58.058Z,10.94
2019-06-09T04:17:24.520Z,10.98
2019-06-09T04:19:52.342Z,11.08
2019-06-09T04:22:18.199Z,11.11
2019-06-09T04:24:44.569Z,11.14
2019-06-09T04:27:12.366Z,11.14
2019-06-09T04:29:39.511Z,11.22
2019-06-09T04:32:06.277Z,11.24
2019-06-09T04:34:38.375Z,11.28
2019-06-09T04:37:03.177Z,11.38
2019-06-09T04:39:29.738Z,11.44
2019-06-09T04:41:55.702Z,11.36
2019-06-09T04:44:22.527Z,11.36
2019-06-09T04:46:51.877Z,11.35
2019-06-09T04:49:16.421Z,11.37
2019-06-09T04:51:44.504Z,11.51
2019-06-09T04:54:12.538Z,11.63
2019-06-09T04:56:42.087Z,11.75
2019-06-09T04:59:05.421Z,11.84
2019-06-09T05:01:39.899Z,11.94
2019-06-09T05:04:02.051Z,11.94
2019-06-09T05:06:41.383Z,11.87
2019-06-09T05:08:54.670Z,11.79
2019-06-09T05:11:23.286Z,11.96
2019-06-09T05:13:48.724Z,12.02
2019-06-09T05:16:14.526Z,12.12
2019-06-09T05:18:50.395Z,12.20
2019-06-09T05:21:11.600Z,12.27
2019-06-09T05:23:48.698Z,12.38
2019-06-09T05:26:12.369Z,12.58
2019-06-09T05:28:46.529Z,12.70
2019-06-09T05:31:06.342Z,12.87
2019-06-09T05:33:35.850Z,12.82
2019-06-09T05:36:03.003Z,12.82
2019-06-09T05:38:33.783Z,12.88
2019-06-09T05:41:02.252Z,13.06
2019-06-09T05:43:34.028Z,13.20
2019-06-09T05:45:58.615Z,13.39
2019-06-09T05:48:24.777Z,13.43
2019-06-09T05:50:50.860Z,13.59
2019-06-09T05:53:18.932Z,13.98
2019-06-09T05:55:44.744Z,14.16
2019-06-09T05:58:17.912Z,14.38
2019-06-09T06:00:45.570Z,14.58
2019-06-09T06:03:12.027Z,14.82
2019-06-09T06:05:37.851Z,15.07
2019-06-09T06:08:03.671Z,15.34
2019-06-09T06:10:31.658Z,15.42
2019-06-09T06:12:57.221Z,15.37
2019-06-09T06:15:23.369Z,15.43
2019-06-09T06:17:50.964Z,15.62
2019-06-09T06:20:17.008Z,15.81
2019-06-09T06:22:44.049Z,16.13
2019-06-09T06:25:13.763Z,16.38
2019-06-09T06:27:42.158Z,16.48
2019-06-09T06:30:07.841Z,16.74
2019-06-09T06:32:34.158Z,16.96
2019-06-09T06:35:01.503Z,17.24
2019-06-09T06:37:36.121Z,17.33
2019-06-09T06:39:55.266Z,17.41
2019-06-09T06:42:21.242Z,17.52
2019-06-09T06:44:52.174Z,17.58
2019-06-09T06:47:17.867Z,17.75
2019-06-09T06:49:44.242Z,17.94
2019-06-09T06:52:12.500Z,18.15
2019-06-09T06:54:38.957Z,18.31
2019-06-09T06:57:04.835Z,18.45
2019-06-09T06:59:31.688Z,18.48
2019-06-09T07:01:57.977Z,18.67
2019-06-09T07:04:24.084Z,18.78
2019-06-09T07:06:53.002Z,18.65
2019-06-09T07:09:21.368Z,18.65
2019-06-09T07:11:48.011Z,18.81
2019-06-09T07:14:14.619Z,19.06
2019-06-09T07:16:42.408Z,19.27
2019-06-09T07:19:08.459Z,19.23
2019-06-09T07:21:34.277Z,19.23
2019-06-09T07:24:00.585Z,19.31
2019-06-09T07:26:26.467Z,19.66
2019-06-09T07:28:54.401Z,19.92
2019-06-09T07:31:20.984Z,20.23
2019-06-09T07:33:49.270Z,20.07
2019-06-09T07:36:14.634Z,20.03
2019-06-09T07:38:45.165Z,19.97
2019-06-09T07:41:10.870Z,20.17
2019-06-09T07:43:37.103Z,20.50
2019-06-09T07:46:03.323Z,20.87
2019-06-09T07:48:31.833Z,20.87
2019-06-09T07:50:58.041Z,20.64
2019-06-09T07:53:26.928Z,20.28
2019-06-09T07:55:54.228Z,20.11
2019-06-09T07:58:21.689Z,20.50
2019-06-09T08:00:47.880Z,20.30
2019-06-09T08:03:13.681Z,20.34
2019-06-09T08:05:41.028Z,20.26
2019-06-09T08:08:07.487Z,19.77
2019-06-09T08:10:33.297Z,19.89
2019-06-09T08:13:01.516Z,19.90
2019-06-09T08:15:26.886Z,19.89
2019-06-09T08:17:53.516Z,19.81
2019-06-09T08:20:22.165Z,20.33
2019-06-09T08:22:48.551Z,20.89
2019-06-09T08:25:17.433Z,21.29
2019-06-09T08:27:45.489Z,21.55
2019-06-09T08:30:13.195Z,21.97
2019-06-09T08:32:42.067Z,22.33
2019-06-09T08:35:21.279Z,22.39
2019-06-09T08:37:37.208Z,22.28
2019-06-09T08:40:05.304Z,22.24
2019-06-09T08:42:32.518Z,21.98
2019-06-09T08:44:58.614Z,21.81
2019-06-09T08:47:24.414Z,21.94
2019-06-09T08:49:52.758Z,22.30
2019-06-09T08:52:18.237Z,22.35
2019-06-09T08:54:44.710Z,22.38
2019-06-09T08:57:11.685Z,22.47
2019-06-09T08:59:37.502Z,22.53
2019-06-09T09:02:03.324Z,22.50
2019-06-09T09:04:31.197Z,23.00
2019-06-09T09:06:56.814Z,23.10
2019-06-09T09:09:29.555Z,22.63
2019-06-09T09:11:53.122Z,23.15
2019-06-09T09:14:18.339Z,23.43
2019-06-09T09:16:44.648Z,23.84
2019-06-09T09:19:11.244Z,23.15
2019-06-09T09:21:37.099Z,22.79
2019-06-09T09:24:41.636Z,22.38
2019-06-09T09:26:31.670Z,22.83
2019-06-09T09:28:57.582Z,22.63
2019-06-09T09:31:23.656Z,22.89
2019-06-09T09:33:54.739Z,23.10
2019-06-09T09:36:20.999Z,23.27
2019-06-09T09:38:47.801Z,23.66
2019-06-09T09:41:13.752Z,23.83
2019-06-09T09:43:42.802Z,23.31
2019-06-09T09:46:10.960Z,23.85
2019-06-09T09:48:36.624Z,24.48
2019-06-09T09:51:02.749Z,24.63
2019-06-09T09:53:28.836Z,24.90
2019-06-09T09:55:56.217Z,24.86
2019-06-09T09:58:22.617Z,23.50
2019-06-09T10:00:48.974Z,22.88
2019-06-09T10:03:14.900Z,22.94
2019-06-09T10:05:43.819Z,23.60
2019-06-09T10:08:11.642Z,24.62
2019-06-09T10:10:37.307Z,24.73
2019-06-09T10:13:03.278Z,25.00
2019-06-09T10:15:32.085Z,24.87
2019-06-09T10:17:59.578Z,24.79
2019-06-09T10:20:27.487Z,24.93
2019-06-09T10:22:56.733Z,25.21
2019-06-09T10:25:23.357Z,25.06
2019-06-09T10:27:52.553Z,24.42
2019-06-09T10:30:16.925Z,24.30
2019-06-09T10:32:43.104Z,24.06
2019-06-09T10:35:10.977Z,24.38
2019-06-09T10:37:36.870Z,24.78
2019-06-09T10:40:16.652Z,24.55
2019-06-09T10:42:32.531Z,24.17
2019-06-09T10:45:00.499Z,24.40
2019-06-09T10:47:26.041Z,25.09
2019-06-09T10:49:52.903Z,25.27
2019-06-09T10:52:21.029Z,25.34
2019-06-09T10:54:47.243Z,25.45
2019-06-09T10:57:13.432Z,25.12
2019-06-09T10:59:40.954Z,24.88
2019-06-09T11:02:06.840Z,24.53
2019-06-09T11:04:32.636Z,24.44
2019-06-09T11:07:00.299Z,24.23
2019-06-09T11:09:26.164Z,24.43
2019-06-09T11:11:52.622Z,24.96
2019-06-09T11:14:20.960Z,25.33
2019-06-09T11:16:46.603Z,25.57
2019-06-09T11:19:13.893Z,25.74
2019-06-09T11:21:41.005Z,24.93
2019-06-09T11:24:07.389Z,25.16
2019-06-09T11:26:33.410Z,25.42
2019-06-09T11:29:03.965Z,25.12
2019-06-09T11:31:31.386Z,24.62
2019-06-09T11:33:58.733Z,24.58
2019-06-09T11:36:25.224Z,24.40
2019-06-09T11:38:54.052Z,24.67
2019-06-09T11:41:21.537Z,24.62
2019-06-09T11:43:47.430Z,24.80
2019-06-09T11:46:13.250Z,25.06
2019-06-09T11:48:41.288Z,25.32
2019-06-09T11:51:07.077Z,25.57
2019-06-09T11:53:32.863Z,25.76
2019-06-09T11:55:59.868Z,25.91
2019-06-09T11:58:29.299Z,25.67
2019-06-09T12:00:55.805Z,25.04
2019-06-09T12:03:22.285Z,24.76
2019-06-09T12:05:48.183Z,24.93
2019-06-09T12:08:14.000Z,25.12
2019-06-09T12:10:51.263Z,25.20
2019-06-09T12:13:11.514Z,25.33
2019-06-09T12:15:37.444Z,25.14
2019-06-09T12:18:05.232Z,25.07
2019-06-09T12:20:31.369Z,24.74
2019-06-09T12:22:58.563Z,24.39
2019-06-09T12:25:25.029Z,23.99
2019-06-09T12:27:51.874Z,23.54
2019-06-09T12:30:20.800Z,23.40
2019-06-09T12:32:46.962Z,23.42
2019-06-09T12:35:13.878Z,23.51
2019-06-09T12:37:41.435Z,23.61
2019-06-09T12:40:08.637Z,23.62
2019-06-09T12:42:35.539Z,23.92
2019-06-09T12:45:05.015Z,23.94
2019-06-09T12:47:31.287Z,23.72
2019-06-09T12:49:57.408Z,23.56
2019-06-09T12:52:23.229Z,23.43
2019-06-09T12:54:49.345Z,23.33
2019-06-09T12:57:15.099Z,23.19
2019-06-09T12:59:41.437Z,23.07
2019-06-09T13:02:07.824Z,23.04
2019-06-09T13:04:34.959Z,22.99
2019-06-09T13:07:02.587Z,22.94
2019-06-09T13:09:30.780Z,22.74
2019-06-09T13:11:56.748Z,22.66
2019-06-09T13:14:25.662Z,22.79
2019-06-09T13:16:51.787Z,22.71
2019-06-09T13:19:21.766Z,22.66
2019-06-09T13:21:46.957Z,22.59
2019-06-09T13:24:13.077Z,22.74
2019-06-09T13:26:40.917Z,22.75
2019-06-09T13:29:09.706Z,22.82
2019-06-09T13:31:35.784Z,22.84
2019-06-09T13:34:03.459Z,22.88
2019-06-09T13:36:31.157Z,22.94
2019-06-09T13:38:57.060Z,22.97
2019-06-09T13:41:22.849Z,22.88
2019-06-09T13:43:52.754Z,22.83
2019-06-09T13:46:19.010Z,22.77
2019-06-09T13:48:44.462Z,22.65
2019-06-09T13:51:11.375Z,22.67
2019-06-09T13:53:38.231Z,22.71
2019-06-09T13:56:05.109Z,22.56
2019-06-09T13:58:32.071Z,22.49
2019-06-09T14:00:57.993Z,22.56
2019-06-09T14:03:23.802Z,22.56
2019-06-09T14:05:54.354Z,22.41
2019-06-09T14:08:21.273Z,22.20
2019-06-09T14:10:47.433Z,22.06
2019-06-09T14:13:14.878Z,21.90
2019-06-09T14:15:41.585Z,21.71
2019-06-09T14:18:07.675Z,21.55
2019-06-09T14:20:33.701Z,21.50
2019-06-09T14:23:01.236Z,21.42
2019-06-09T14:25:27.312Z,21.37
2019-06-09T14:27:55.865Z,21.37
2019-06-09T14:30:22.824Z,21.49
2019-06-09T14:32:51.297Z,21.43
2019-06-09T14:35:17.882Z,21.20
2019-06-09T14:37:44.658Z,21.07
2019-06-09T14:40:16.709Z,20.96
2019-06-09T14:42:44.204Z,20.94
2019-06-09T14:45:15.795Z,20.95
2019-06-09T14:47:38.820Z,20.88
2019-06-09T14:50:06.132Z,20.72
2019-06-09T14:52:31.961Z,20.68
2019-06-09T14:54:58.042Z,20.66
2019-06-09T14:57:24.096Z,20.58
2019-06-09T14:59:51.223Z,20.51
2019-06-09T15:02:17.673Z,20.46
2019-06-09T15:04:43.798Z,20.43
2019-06-09T15:07:09.894Z,20.50
2019-06-09T15:09:35.688Z,20.56
2019-06-09T15:12:01.758Z,20.68
2019-06-09T15:14:30.566Z,20.72
2019-06-09T15:16:56.660Z,20.75
2019-06-09T15:19:25.444Z,20.67
2019-06-09T15:21:51.319Z,20.49
2019-06-09T15:24:18.233Z,20.32
2019-06-09T15:26:44.847Z,20.11
2019-06-09T15:29:11.932Z,20.17
2019-06-09T15:31:37.871Z,20.05
2019-06-09T15:34:03.890Z,19.93
2019-06-09T15:36:31.674Z,19.86
2019-06-09T15:38:57.612Z,19.87
2019-06-09T15:41:26.157Z,19.99
2019-06-09T15:43:53.486Z,19.73
2019-06-09T15:46:22.091Z,19.73
2019-06-09T15:48:47.220Z,19.76
2019-06-09T15:51:16.123Z,19.84
2019-06-09T15:53:42.264Z,19.99
2019-06-09T15:56:11.072Z,20.05
2019-06-09T15:58:37.001Z,20.15
2019-06-09T16:01:02.806Z,20.14
2019-06-09T16:03:31.331Z,20.19
2019-06-09T16:05:57.202Z,20.37
2019-06-09T16:08:25.500Z,20.33
2019-06-09T16:10:51.420Z,20.38
2019-06-09T16:13:21.562Z,20.42
2019-06-09T16:15:44.923Z,20.51
2019-06-09T16:18:10.748Z,20.58
2019-06-09T16:20:36.527Z,20.56
2019-06-09T16:23:05.122Z,20.62
2019-06-09T16:25:31.343Z,20.57
2019-06-09T16:28:01.673Z,20.46
2019-06-09T16:30:27.652Z,20.33
2019-06-09T16:32:54.528Z,20.10
2019-06-09T16:35:20.903Z,20.04
2019-06-09T16:37:46.671Z,19.99
2019-06-09T16:40:12.663Z,19.85
2019-06-09T16:42:38.484Z,19.87
2019-06-09T16:45:07.405Z,19.75
2019-06-09T16:47:33.521Z,19.63
2019-06-09T16:50:04.765Z,19.56
2019-06-09T16:52:33.945Z,19.48
2019-06-09T16:55:00.644Z,19.35
2019-06-09T16:57:27.228Z,19.22
2019-06-09T16:59:53.760Z,19.22
2019-06-09T17:02:22.771Z,19.10
2019-06-09T17:04:47.278Z,19.04
2019-06-09T17:07:32.782Z,18.92
2019-06-09T17:09:58.682Z,18.84
2019-06-09T17:12:25.184Z,18.75
2019-06-09T17:14:51.269Z,18.75
2019-06-09T17:17:17.104Z,18.85
2019-06-09T17:19:48.052Z,18.85
2019-06-09T17:22:13.249Z,18.96
2019-06-09T17:24:41.552Z,18.84
2019-06-09T17:27:07.375Z,18.81
2019-06-09T17:29:33.943Z,18.79
2019-06-09T17:32:01.056Z,18.74
2019-06-09T17:34:28.086Z,18.66
2019-06-09T17:36:53.948Z,18.67
2019-06-09T17:39:22.342Z,18.64
2019-06-09T17:41:47.480Z,18.66
2019-06-09T17:44:15.569Z,18.66
2019-06-09T17:46:41.533Z,18.63
2019-06-09T17:49:07.352Z,18.66
2019-06-09T17:51:35.795Z,18.66
2019-06-09T17:54:00.884Z,18.54
2019-06-09T17:56:26.672Z,18.51
2019-06-09T17:58:52.770Z,18.53
2019-06-09T18:01:20.681Z,18.47
2019-06-09T18:03:46.570Z,18.41
2019-06-09T18:06:13.873Z,18.41
2019-06-09T18:08:41.115Z,18.49
2019-06-09T18:11:07.216Z,18.53
2019-06-09T18:13:35.496Z,18.46
2019-06-09T18:16:04.062Z,18.48
2019-06-09T18:18:31.604Z,18.44
2019-06-09T18:20:56.746Z,18.44
2019-06-09T18:23:22.544Z,18.43
2019-06-09T18:25:48.358Z,18.40
2019-06-09T18:28:14.466Z,18.36
2019-06-09T18:30:53.189Z,18.28
2019-06-09T18:33:11.295Z,18.28
2019-06-09T18:35:37.819Z,18.23
2019-06-09T18:38:05.154Z,18.21
2019-06-09T18:40:35.485Z,18.26
2019-06-09T18:43:01.800Z,18.25
2019-06-09T18:45:36.776Z,18.17
2019-06-09T18:48:03.701Z,18.05
2019-06-09T18:50:29.697Z,17.99
2019-06-09T18:52:55.809Z,18.02
2019-06-09T18:55:21.615Z,18.04
2019-06-09T18:57:47.441Z,18.01
2019-06-09T19:00:13.627Z,18.04
2019-06-09T19:02:42.242Z,18.04
2019-06-09T19:05:07.519Z,18.07
2019-06-09T19:07:35.242Z,18.01
2019-06-09T19:10:01.019Z,18.06
2019-06-09T19:12:27.098Z,18.09
2019-06-09T19:15:08.202Z,18.03
2019-06-09T19:17:21.824Z,18.03
2019-06-09T19:19:47.980Z,17.96
2019-06-09T19:22:13.766Z,17.91
2019-06-09T19:24:39.581Z,17.86
2019-06-09T19:27:05.365Z,17.85
2019-06-09T19:29:32.289Z,17.93
2019-06-09T19:31:58.887Z,17.80
2019-06-09T19:34:24.952Z,17.80
2019-06-09T19:36:50.764Z,17.73
2019-06-09T19:39:16.574Z,17.74
2019-06-09T19:41:45.710Z,17.72
2019-06-09T19:44:12.145Z,17.72
2019-06-09T19:46:41.204Z,17.70
2019-06-09T19:49:06.077Z,17.67
2019-06-09T19:51:32.161Z,17.68
2019-06-09T19:53:57.964Z,17.61
2019-06-09T19:56:23.800Z,17.66
2019-06-09T19:58:50.911Z,17.51
2019-06-09T20:01:17.021Z,17.64
2019-06-09T20:03:44.675Z,17.53
2019-06-09T20:06:10.912Z,17.48
2019-06-09T20:08:37.038Z,17.48
2019-06-09T20:11:03.806Z,17.48
2019-06-09T20:13:31.107Z,17.48
2019-06-09T20:16:01.226Z,17.48
2019-06-09T20:18:27.189Z,17.41
2019-06-09T20:20:53.292Z,17.30
2019-06-09T20:23:21.888Z,17.08
2019-06-09T20:25:48.428Z,17.01
2019-06-09T20:28:14.282Z,16.99
2019-06-09T20:30:41.518Z,16.94
2019-06-09T20:33:08.089Z,16.91
2019-06-09T20:35:33.874Z,16.89
2019-06-09T20:38:01.454Z,16.83
2019-06-09T20:40:35.041Z,16.76
2019-06-09T20:42:55.157Z,16.66
2019-06-09T20:45:21.967Z,16.57
2019-06-09T20:47:48.410Z,16.55
2019-06-09T20:50:15.470Z,16.50
2019-06-09T20:52:43.515Z,16.51
2019-06-09T20:55:10.692Z,16.45
2019-06-09T20:57:36.544Z,16.48
2019-06-09T21:00:04.488Z,16.45
2019-06-09T21:02:31.262Z,16.40
2019-06-09T21:04:57.134Z,16.38
2019-06-09T21:07:23.053Z,16.34
2019-06-09T21:09:50.704Z,16.38
2019-06-09T21:12:16.635Z,16.41
2019-06-09T21:14:43.485Z,16.43
2019-06-09T21:17:10.882Z,16.33
2019-06-09T21:19:36.794Z,16.29
2019-06-09T21:22:02.720Z,16.32
2019-06-09T21:24:30.547Z,16.32
2019-06-09T21:26:57.704Z,16.25
2019-06-09T21:29:23.808Z,16.17
2019-06-09T21:31:52.687Z,16.17
2019-06-09T21:34:17.355Z,16.17
2019-06-09T21:36:45.090Z,16.08
2019-06-09T21:39:11.209Z,16.01
2019-06-09T21:41:37.096Z,15.98
2019-06-09T21:44:03.830Z,16.01
2019-06-09T21:46:35.702Z,15.98
2019-06-09T21:49:02.235Z,15.91
2019-06-09T21:51:26.500Z,15.89
2019-06-09T21:53:54.014Z,15.86
2019-06-09T21:56:21.529Z,15.81
2019-06-09T21:58:47.448Z,15.90
2019-06-09T22:01:13.553Z,15.86
2019-06-09T22:03:43.290Z,15.89
2019-06-09T22:06:11.562Z,15.92
2019-06-09T22:08:36.794Z,15.88
2019-06-09T22:11:02.728Z,15.87
2019-06-09T22:13:28.502Z,15.88
2019-06-09T22:15:56.265Z,15.80
2019-06-09T22:18:22.261Z,15.79
2019-06-09T22:20:53.036Z,15.86
2019-06-09T22:23:17.027Z,15.90
2019-06-09T22:25:44.022Z,15.94
2019-06-09T22:28:11.834Z,16.07
2019-06-09T22:30:41.994Z,16.21
2019-06-09T22:33:07.788Z,16.33
2019-06-09T22:35:33.865Z,16.34
2019-06-09T22:38:01.690Z,16.42
2019-06-09T22:40:27.605Z,16.43
2019-06-09T22:42:54.474Z,16.40
2019-06-09T22:45:21.530Z,16.40
2019-06-09T22:47:53.326Z,16.25
2019-06-09T22:50:15.468Z,16.07
2019-06-09T22:52:41.456Z,15.96
2019-06-09T22:55:08.140Z,15.90
2019-06-09T22:57:33.983Z,15.84
2019-06-09T23:00:01.333Z,15.85
2019-06-09T23:02:32.148Z,15.80
2019-06-09T23:04:57.684Z,15.80
2019-06-09T23:07:23.861Z,15.85
2019-06-09T23:09:52.242Z,15.81
2019-06-09T23:12:20.552Z,15.73
2019-06-09T23:14:46.433Z,15.72
2019-06-09T23:17:21.850Z,15.81
2019-06-09T23:19:41.820Z,15.98
2019-06-09T23:22:07.927Z,16.14
2019-06-09T23:24:34.038Z,16.22
2019-06-09T23:27:02.492Z,16.32
2019-06-09T23:29:27.816Z,16.31
2019-06-09T23:31:54.244Z,16.34
2019-06-09T23:34:21.388Z,16.38
2019-06-09T23:36:47.615Z,16.35
2019-06-09T23:39:15.002Z,16.20
2019-06-09T23:41:40.813Z,16.05
2019-06-09T23:44:11.758Z,15.99
2019-06-09T23:46:37.073Z,15.96
2019-06-09T23:49:04.758Z,15.93
2019-06-09T23:51:31.020Z,15.96
2019-06-09T23:54:01.670Z,15.90
2019-06-09T23:56:27.578Z,15.78
2019-06-09T23:58:54.953Z,15.68
